sensor_id;sensor_type;location;lat;lon;timestamp;pressure;altitude;pressure_sealevel;temperature;humidity
16821;BME280;8527;49.740;6.604;2023-04-04T00:01:09;100808.72;;;1.82;66.96
16821;BME280;8527;49.740;6.604;2023-04-04T00:06:07;100803.59;;;1.80;65.87
16821;BME280;8527;49.740;6.604;2023-04-04T00:11:06;100802.66;;;1.65;68.73
16821;BME280;8527;49.740;6.604;2023-04-04T00:16:05;100795.84;;;1.47;69.75
16821;BME280;8527;49.740;6.604;2023-04-04T00:21:07;100788.56;;;1.36;69.46
16821;BME280;8527;49.740;6.604;2023-04-04T00:26:05;100778.34;;;1.47;69.54
16821;BME280;8527;49.740;6.604;2023-04-04T00:31:04;100774.66;;;1.35;70.56
16821;BME280;8527;49.740;6.604;2023-04-04T00:36:02;100777.00;;;1.24;71.17
16821;BME280;8527;49.740;6.604;2023-04-04T00:41:04;100766.56;;;1.24;70.25
16821;BME280;8527;49.740;6.604;2023-04-04T00:46:03;100772.84;;;1.20;71.24
16821;BME280;8527;49.740;6.604;2023-04-04T00:51:01;100766.72;;;1.21;69.84
16821;BME280;8527;49.740;6.604;2023-04-04T00:56:00;100768.03;;;1.12;71.09
16821;BME280;8527;49.740;6.604;2023-04-04T01:01:04;100758.69;;;1.08;69.97
16821;BME280;8527;49.740;6.604;2023-04-04T01:06:05;100768.78;;;0.98;71.30
16821;BME280;8527;49.740;6.604;2023-04-04T01:11:04;100766.59;;;0.90;72.86
16821;BME280;8527;49.740;6.604;2023-04-04T01:16:06;100771.88;;;0.89;72.09
16821;BME280;8527;49.740;6.604;2023-04-04T01:21:08;100767.47;;;0.73;72.08
16821;BME280;8527;49.740;6.604;2023-04-04T01:26:10;100765.44;;;0.78;71.31
16821;BME280;8527;49.740;6.604;2023-04-04T01:31:11;100757.53;;;0.80;71.31
16821;BME280;8527;49.740;6.604;2023-04-04T01:36:15;100751.50;;;0.62;72.85
16821;BME280;8527;49.740;6.604;2023-04-04T01:41:19;100753.41;;;0.58;72.73
16821;BME280;8527;49.740;6.604;2023-04-04T01:46:19;100748.19;;;0.58;71.81
16821;BME280;8527;49.740;6.604;2023-04-04T01:51:17;100745.66;;;0.56;72.00
16821;BME280;8527;49.740;6.604;2023-04-04T01:56:15;100750.50;;;0.47;72.58
16821;BME280;8527;49.740;6.604;2023-04-04T02:01:16;100748.13;;;0.42;73.49
16821;BME280;8527;49.740;6.604;2023-04-04T02:06:15;100743.28;;;0.34;72.73
16821;BME280;8527;49.740;6.604;2023-04-04T02:11:14;100754.19;;;0.43;71.65
16821;BME280;8527;49.740;6.604;2023-04-04T02:16:15;100757.38;;;0.32;72.90
16821;BME280;8527;49.740;6.604;2023-04-04T02:21:14;100755.91;;;0.26;73.96
16821;BME280;8527;49.740;6.604;2023-04-04T02:26:13;100762.13;;;0.23;73.76
16821;BME280;8527;49.740;6.604;2023-04-04T02:31:11;100760.72;;;0.16;74.00
16821;BME280;8527;49.740;6.604;2023-04-04T02:36:12;100758.50;;;0.08;74.28
16821;BME280;8527;49.740;6.604;2023-04-04T02:41:10;100758.34;;;0.11;73.64
16821;BME280;8527;49.740;6.604;2023-04-04T02:46:09;100755.66;;;0.13;73.09
16821;BME280;8527;49.740;6.604;2023-04-04T02:51:08;100761.81;;;0.12;73.93
16821;BME280;8527;49.740;6.604;2023-04-04T02:56:09;100754.25;;;0.06;73.74
16821;BME280;8527;49.740;6.604;2023-04-04T03:01:07;100755.28;;;0.03;73.46
16821;BME280;8527;49.740;6.604;2023-04-04T03:06:06;100760.78;;;-0.03;73.97
16821;BME280;8527;49.740;6.604;2023-04-04T03:11:05;100749.66;;;-0.07;74.08
16821;BME280;8527;49.740;6.604;2023-04-04T03:16:07;100754.03;;;-0.07;73.68
16821;BME280;8527;49.740;6.604;2023-04-04T03:21:05;100753.28;;;-0.09;73.30
16821;BME280;8527;49.740;6.604;2023-04-04T03:26:04;100745.72;;;-0.16;73.28
16821;BME280;8527;49.740;6.604;2023-04-04T03:31:03;100744.75;;;-0.13;73.26
16821;BME280;8527;49.740;6.604;2023-04-04T03:36:08;100741.38;;;-0.15;73.24
16821;BME280;8527;49.740;6.604;2023-04-04T03:41:07;100741.38;;;-0.15;73.22
16821;BME280;8527;49.740;6.604;2023-04-04T03:46:06;100746.88;;;-0.21;73.08
16821;BME280;8527;49.740;6.604;2023-04-04T03:51:07;100740.13;;;-0.25;73.26
16821;BME280;8527;49.740;6.604;2023-04-04T03:56:05;100741.97;;;-0.27;73.76
16821;BME280;8527;49.740;6.604;2023-04-04T04:01:03;100748.72;;;-0.23;74.96
16821;BME280;8527;49.740;6.604;2023-04-04T04:06:02;100750.06;;;-0.34;75.40
16821;BME280;8527;49.740;6.604;2023-04-04T04:11:07;100742.47;;;-0.58;77.01
16821;BME280;8527;49.740;6.604;2023-04-04T04:16:05;100742.34;;;-0.54;77.19
16821;BME280;8527;49.740;6.604;2023-04-04T04:21:04;100731.28;;;-0.60;77.78
16821;BME280;8527;49.740;6.604;2023-04-04T04:26:02;100727.09;;;-0.81;77.60
16821;BME280;8527;49.740;6.604;2023-04-04T04:31:08;100722.56;;;-0.78;77.45
16821;BME280;8527;49.740;6.604;2023-04-04T04:36:07;100731.66;;;-0.87;79.29
16821;BME280;8527;49.740;6.604;2023-04-04T04:41:05;100734.47;;;-0.91;79.13
16821;BME280;8527;49.740;6.604;2023-04-04T04:46:06;100736.66;;;-1.01;78.53
16821;BME280;8527;49.740;6.604;2023-04-04T04:51:05;100741.72;;;-0.98;78.61
16821;BME280;8527;49.740;6.604;2023-04-04T04:56:08;100732.56;;;-1.07;78.87
16821;BME280;8527;49.740;6.604;2023-04-04T05:01:09;100729.56;;;-0.97;78.36
16821;BME280;8527;49.740;6.604;2023-04-04T05:06:07;100738.13;;;-0.95;77.65
16821;BME280;8527;49.740;6.604;2023-04-04T05:11:06;100744.25;;;-0.96;77.98
16821;BME280;8527;49.740;6.604;2023-04-04T05:16:05;100744.88;;;-0.91;78.59
16821;BME280;8527;49.740;6.604;2023-04-04T05:21:06;100739.13;;;-0.79;78.08
16821;BME280;8527;49.740;6.604;2023-04-04T05:26:04;100742.72;;;-0.62;77.74
16821;BME280;8527;49.740;6.604;2023-04-04T05:31:03;100746.13;;;-0.43;76.85
16821;BME280;8527;49.740;6.604;2023-04-04T05:36:02;100753.88;;;-0.22;75.82
16821;BME280;8527;49.740;6.604;2023-04-04T05:41:03;100743.72;;;-0.28;76.74
16821;BME280;8527;49.740;6.604;2023-04-04T05:46:01;100748.28;;;-0.14;75.34
16821;BME280;8527;49.740;6.604;2023-04-04T05:51:00;100752.41;;;-0.10;73.74
16821;BME280;8527;49.740;6.604;2023-04-04T05:55:58;100759.63;;;0.03;74.11
16821;BME280;8527;49.740;6.604;2023-04-04T06:01:02;100761.19;;;0.07;72.64
16821;BME280;8527;49.740;6.604;2023-04-04T06:06:06;100760.03;;;0.30;72.42
16821;BME280;8527;49.740;6.604;2023-04-04T06:11:04;100764.81;;;0.39;71.41
16821;BME280;8527;49.740;6.604;2023-04-04T06:16:08;100761.22;;;0.76;70.19
16821;BME280;8527;49.740;6.604;2023-04-04T06:21:09;100779.44;;;0.77;68.89
16821;BME280;8527;49.740;6.604;2023-04-04T06:26:07;100786.72;;;1.22;67.02
16821;BME280;8527;49.740;6.604;2023-04-04T06:31:09;100782.56;;;1.82;64.66
16821;BME280;8527;49.740;6.604;2023-04-04T06:36:13;100776.13;;;2.04;64.20
16821;BME280;8527;49.740;6.604;2023-04-04T06:41:14;100784.66;;;2.07;63.07
16821;BME280;8527;49.740;6.604;2023-04-04T06:46:21;100785.25;;;2.58;62.44
16821;BME280;8527;49.740;6.604;2023-04-04T06:51:26;100786.66;;;3.36;60.15
16821;BME280;8527;49.740;6.604;2023-04-04T06:56:25;100795.03;;;2.99;60.06
16821;BME280;8527;49.740;6.604;2023-04-04T07:01:26;100784.56;;;2.99;60.10
16821;BME280;8527;49.740;6.604;2023-04-04T07:06:25;100788.34;;;3.37;58.20
16821;BME280;8527;49.740;6.604;2023-04-04T07:11:24;100781.44;;;3.36;57.75
16821;BME280;8527;49.740;6.604;2023-04-04T07:16:28;100769.16;;;3.22;57.84
16821;BME280;8527;49.740;6.604;2023-04-04T07:21:26;100778.22;;;3.45;56.68
16821;BME280;8527;49.740;6.604;2023-04-04T07:26:25;100771.75;;;3.78;56.57
16821;BME280;8527;49.740;6.604;2023-04-04T07:31:25;100770.50;;;3.84;55.82
16821;BME280;8527;49.740;6.604;2023-04-04T07:36:26;100781.00;;;4.12;55.68
16821;BME280;8527;49.740;6.604;2023-04-04T07:41:28;100771.94;;;4.30;55.14
16821;BME280;8527;49.740;6.604;2023-04-04T07:46:26;100777.59;;;3.97;55.89
16821;BME280;8527;49.740;6.604;2023-04-04T07:51:32;100775.00;;;4.37;55.14
16821;BME280;8527;49.740;6.604;2023-04-04T07:56:37;100786.91;;;4.15;54.69
16821;BME280;8527;49.740;6.604;2023-04-04T08:01:36;100784.03;;;4.46;54.42
16821;BME280;8527;49.740;6.604;2023-04-04T08:06:37;100773.84;;;4.93;53.76
16821;BME280;8527;49.740;6.604;2023-04-04T08:11:35;100773.50;;;5.24;52.50
16821;BME280;8527;49.740;6.604;2023-04-04T08:16:36;100775.16;;;5.25;52.92
16821;BME280;8527;49.740;6.604;2023-04-04T08:21:37;100775.69;;;4.26;53.71
16821;BME280;8527;49.740;6.604;2023-04-04T08:26:35;100777.81;;;4.60;53.58
16821;BME280;8527;49.740;6.604;2023-04-04T08:31:34;100787.22;;;5.40;51.45
16821;BME280;8527;49.740;6.604;2023-04-04T08:36:33;100769.47;;;5.93;50.54
16821;BME280;8527;49.740;6.604;2023-04-04T08:41:35;100785.94;;;5.83;49.87
16821;BME280;8527;49.740;6.604;2023-04-04T08:46:33;100786.72;;;5.72;50.60
16821;BME280;8527;49.740;6.604;2023-04-04T08:51:32;100782.63;;;5.93;50.11
16821;BME280;8527;49.740;6.604;2023-04-04T08:56:34;100771.34;;;6.39;49.40
16821;BME280;8527;49.740;6.604;2023-04-04T09:01:33;100786.19;;;6.99;48.04
16821;BME280;8527;49.740;6.604;2023-04-04T09:06:31;100796.00;;;6.02;47.75
16821;BME280;8527;49.740;6.604;2023-04-04T09:11:30;100777.53;;;6.74;47.57
16821;BME280;8527;49.740;6.604;2023-04-04T09:16:31;100770.22;;;7.23;46.00
16821;BME280;8527;49.740;6.604;2023-04-04T09:21:32;100771.06;;;7.12;46.76
16821;BME280;8527;49.740;6.604;2023-04-04T09:26:45;100761.56;;;6.17;48.13
16821;BME280;8527;49.740;6.604;2023-04-04T09:31:48;100766.97;;;6.74;46.28
16821;BME280;8527;49.740;6.604;2023-04-04T09:36:48;100764.66;;;6.46;47.57
16821;BME280;8527;49.740;6.604;2023-04-04T09:41:48;100743.28;;;6.27;48.98
16821;BME280;8527;49.740;6.604;2023-04-04T09:46:49;100741.53;;;7.30;47.29
16821;BME280;8527;49.740;6.604;2023-04-04T09:51:52;100747.06;;;6.93;47.12
16821;BME280;8527;49.740;6.604;2023-04-04T09:56:50;100748.59;;;7.52;46.67
16821;BME280;8527;49.740;6.604;2023-04-04T10:01:53;100749.13;;;8.00;45.78
16821;BME280;8527;49.740;6.604;2023-04-04T10:06:52;100732.63;;;7.42;45.92
16821;BME280;8527;49.740;6.604;2023-04-04T10:12:09;100739.41;;;8.00;46.15
16821;BME280;8527;49.740;6.604;2023-04-04T10:17:10;100727.88;;;8.01;43.83
16821;BME280;8527;49.740;6.604;2023-04-04T10:22:10;100724.50;;;7.78;44.75
16821;BME280;8527;49.740;6.604;2023-04-04T10:27:08;100729.63;;;7.47;44.43
16821;BME280;8527;49.740;6.604;2023-04-04T10:32:12;100726.31;;;7.22;45.12
16821;BME280;8527;49.740;6.604;2023-04-04T10:37:16;100719.97;;;7.25;45.17
16821;BME280;8527;49.740;6.604;2023-04-04T10:42:22;100711.56;;;7.20;45.34
16821;BME280;8527;49.740;6.604;2023-04-04T10:47:26;100726.22;;;7.12;45.49
16821;BME280;8527;49.740;6.604;2023-04-04T10:52:27;100713.09;;;7.34;44.57
16821;BME280;8527;49.740;6.604;2023-04-04T10:57:26;100724.06;;;7.62;42.99
16821;BME280;8527;49.740;6.604;2023-04-04T11:03:00;100711.47;;;7.86;44.67
16821;BME280;8527;49.740;6.604;2023-04-04T11:08:03;100709.97;;;8.05;44.08
16821;BME280;8527;49.740;6.604;2023-04-04T11:13:14;100705.22;;;7.11;43.96
16821;BME280;8527;49.740;6.604;2023-04-04T11:18:18;100709.13;;;7.39;43.88
16821;BME280;8527;49.740;6.604;2023-04-04T11:23:20;100703.31;;;8.32;44.57
16821;BME280;8527;49.740;6.604;2023-04-04T11:28:27;100706.63;;;7.70;43.55
16821;BME280;8527;49.740;6.604;2023-04-04T11:33:29;100698.25;;;7.65;43.69
16821;BME280;8527;49.740;6.604;2023-04-04T11:38:42;100691.88;;;7.35;44.56
16821;BME280;8527;49.740;6.604;2023-04-04T11:43:49;100710.53;;;7.43;44.78
16821;BME280;8527;49.740;6.604;2023-04-04T11:48:50;100696.22;;;7.13;44.73
16821;BME280;8527;49.740;6.604;2023-04-04T11:53:50;100675.84;;;7.81;44.81
16821;BME280;8527;49.740;6.604;2023-04-04T11:58:56;100681.53;;;7.65;44.34
16821;BME280;8527;49.740;6.604;2023-04-04T12:03:58;100677.97;;;7.66;44.99
16821;BME280;8527;49.740;6.604;2023-04-04T12:08:58;100681.72;;;7.84;44.51
16821;BME280;8527;49.740;6.604;2023-04-04T12:13:59;100661.84;;;7.48;45.45
16821;BME280;8527;49.740;6.604;2023-04-04T12:19:02;100643.75;;;8.28;44.00
16821;BME280;8527;49.740;6.604;2023-04-04T12:24:00;100640.09;;;7.98;45.27
16821;BME280;8527;49.740;6.604;2023-04-04T12:28:59;100652.06;;;8.02;44.95
16821;BME280;8527;49.740;6.604;2023-04-04T12:33:57;100645.88;;;7.70;44.47
16821;BME280;8527;49.740;6.604;2023-04-04T12:39:00;100636.34;;;8.00;44.26
16821;BME280;8527;49.740;6.604;2023-04-04T12:44:00;100637.34;;;7.78;44.39
16821;BME280;8527;49.740;6.604;2023-04-04T12:48:59;100628.19;;;7.82;43.90
16821;BME280;8527;49.740;6.604;2023-04-04T12:54:00;100611.56;;;7.92;43.72
16821;BME280;8527;49.740;6.604;2023-04-04T12:58:59;100613.03;;;7.84;44.18
16821;BME280;8527;49.740;6.604;2023-04-04T13:04:01;100597.38;;;7.93;44.08
16821;BME280;8527;49.740;6.604;2023-04-04T13:09:03;100597.38;;;8.24;44.08
16821;BME280;8527;49.740;6.604;2023-04-04T13:14:02;100589.84;;;8.19;43.47
16821;BME280;8527;49.740;6.604;2023-04-04T13:19:01;100589.75;;;7.99;44.09
16821;BME280;8527;49.740;6.604;2023-04-04T13:24:04;100573.25;;;8.07;44.13
16821;BME280;8527;49.740;6.604;2023-04-04T13:29:08;100567.31;;;8.15;44.40
16821;BME280;8527;49.740;6.604;2023-04-04T13:34:06;100559.56;;;8.23;43.17
16821;BME280;8527;49.740;6.604;2023-04-04T13:39:09;100562.28;;;8.12;43.92
16821;BME280;8527;49.740;6.604;2023-04-04T13:44:08;100558.59;;;8.24;45.08
16821;BME280;8527;49.740;6.604;2023-04-04T13:49:06;100563.22;;;8.42;44.16
16821;BME280;8527;49.740;6.604;2023-04-04T13:54:10;100549.00;;;8.33;44.38
16821;BME280;8527;49.740;6.604;2023-04-04T13:59:09;100550.78;;;8.23;43.56
16821;BME280;8527;49.740;6.604;2023-04-04T14:04:10;100550.19;;;8.19;44.14
16821;BME280;8527;49.740;6.604;2023-04-04T14:09:12;100550.91;;;8.21;44.47
16821;BME280;8527;49.740;6.604;2023-04-04T14:14:13;100552.06;;;8.38;44.59
16821;BME280;8527;49.740;6.604;2023-04-04T14:19:11;100550.69;;;8.44;44.16
16821;BME280;8527;49.740;6.604;2023-04-04T14:24:15;100531.22;;;8.45;44.23
16821;BME280;8527;49.740;6.604;2023-04-04T14:29:13;100518.56;;;8.39;43.39
16821;BME280;8527;49.740;6.604;2023-04-04T14:34:12;100513.84;;;8.42;44.26
16821;BME280;8527;49.740;6.604;2023-04-04T14:39:10;100515.69;;;8.52;43.91
16821;BME280;8527;49.740;6.604;2023-04-04T14:44:11;100504.13;;;8.53;43.03
16821;BME280;8527;49.740;6.604;2023-04-04T14:49:10;100503.56;;;8.49;43.69
16821;BME280;8527;49.740;6.604;2023-04-04T14:54:15;100510.78;;;8.47;43.96
16821;BME280;8527;49.740;6.604;2023-04-04T14:59:16;100503.09;;;8.34;42.94
16821;BME280;8527;49.740;6.604;2023-04-04T15:04:15;100493.28;;;8.56;43.13
16821;BME280;8527;49.740;6.604;2023-04-04T15:09:14;100485.72;;;8.41;43.19
16821;BME280;8527;49.740;6.604;2023-04-04T15:14:18;100483.38;;;8.48;43.63
16821;BME280;8527;49.740;6.604;2023-04-04T15:19:17;100467.47;;;8.38;43.07
16821;BME280;8527;49.740;6.604;2023-04-04T15:24:16;100471.94;;;8.38;43.04
16821;BME280;8527;49.740;6.604;2023-04-04T15:29:14;100461.56;;;8.56;43.72
16821;BME280;8527;49.740;6.604;2023-04-04T15:34:15;100464.41;;;8.43;42.21
16821;BME280;8527;49.740;6.604;2023-04-04T15:39:16;100475.97;;;8.32;42.48
16821;BME280;8527;49.740;6.604;2023-04-04T15:44:15;100467.25;;;8.51;43.27
16821;BME280;8527;49.740;6.604;2023-04-04T15:49:16;100474.78;;;8.56;42.82
16821;BME280;8527;49.740;6.604;2023-04-04T15:54:20;100465.81;;;8.37;43.15
16821;BME280;8527;49.740;6.604;2023-04-04T15:59:19;100459.94;;;8.34;43.33
16821;BME280;8527;49.740;6.604;2023-04-04T16:04:20;100448.13;;;8.38;43.99
16821;BME280;8527;49.740;6.604;2023-04-04T16:09:19;100457.75;;;8.39;43.48
16821;BME280;8527;49.740;6.604;2023-04-04T16:14:19;100443.41;;;8.41;43.58
16821;BME280;8527;49.740;6.604;2023-04-04T16:19:23;100450.09;;;8.36;43.58
16821;BME280;8527;49.740;6.604;2023-04-04T16:24:22;100452.72;;;8.36;43.71
16821;BME280;8527;49.740;6.604;2023-04-04T16:29:21;100457.84;;;8.27;43.27
16821;BME280;8527;49.740;6.604;2023-04-04T16:34:22;100452.47;;;8.49;43.73
16821;BME280;8527;49.740;6.604;2023-04-04T16:39:21;100443.25;;;8.33;44.11
16821;BME280;8527;49.740;6.604;2023-04-04T16:44:20;100448.66;;;8.31;43.72
16821;BME280;8527;49.740;6.604;2023-04-04T16:49:18;100447.41;;;8.16;44.18
16821;BME280;8527;49.740;6.604;2023-04-04T16:54:19;100440.97;;;8.09;43.69
16821;BME280;8527;49.740;6.604;2023-04-04T16:59:18;100445.84;;;8.13;43.91
16821;BME280;8527;49.740;6.604;2023-04-04T17:04:18;100436.81;;;8.16;44.22
16821;BME280;8527;49.740;6.604;2023-04-04T17:09:23;100436.94;;;8.14;44.48
16821;BME280;8527;49.740;6.604;2023-04-04T17:14:22;100439.16;;;8.09;44.97
16821;BME280;8527;49.740;6.604;2023-04-04T17:19:20;100431.75;;;7.93;44.32
16821;BME280;8527;49.740;6.604;2023-04-04T17:24:22;100437.19;;;7.92;45.78
16821;BME280;8527;49.740;6.604;2023-04-04T17:29:21;100435.22;;;7.84;45.87
16821;BME280;8527;49.740;6.604;2023-04-04T17:34:21;100431.03;;;7.81;47.58
16821;BME280;8527;49.740;6.604;2023-04-04T17:44:26;100436.38;;;7.60;49.70
16821;BME280;8527;49.740;6.604;2023-04-04T17:49:25;100433.88;;;7.37;49.22
16821;BME280;8527;49.740;6.604;2023-04-04T17:54:23;100431.63;;;7.32;49.48
16821;BME280;8527;49.740;6.604;2023-04-04T17:59:26;100432.94;;;7.17;51.56
16821;BME280;8527;49.740;6.604;2023-04-04T18:04:25;100433.00;;;7.06;52.33
16821;BME280;8527;49.740;6.604;2023-04-04T18:09:23;100434.84;;;6.94;54.43
16821;BME280;8527;49.740;6.604;2023-04-04T18:14:25;100443.44;;;6.74;54.79
16821;BME280;8527;49.740;6.604;2023-04-04T18:19:24;100438.44;;;6.71;56.21
16821;BME280;8527;49.740;6.604;2023-04-04T18:24:23;100447.97;;;6.51;56.76
16821;BME280;8527;49.740;6.604;2023-04-04T18:29:28;100454.91;;;6.52;57.37
16821;BME280;8527;49.740;6.604;2023-04-04T18:34:27;100447.06;;;6.29;58.28
16821;BME280;8527;49.740;6.604;2023-04-04T18:39:27;100447.00;;;6.08;59.81
16821;BME280;8527;49.740;6.604;2023-04-04T18:44:29;100453.81;;;6.11;58.19
16821;BME280;8527;49.740;6.604;2023-04-04T18:49:28;100451.28;;;5.86;59.27
16821;BME280;8527;49.740;6.604;2023-04-04T18:54:27;100458.22;;;5.87;59.43
16821;BME280;8527;49.740;6.604;2023-04-04T18:59:25;100458.22;;;5.87;58.64
16821;BME280;8527;49.740;6.604;2023-04-04T19:04:28;100461.69;;;5.76;58.91
16821;BME280;8527;49.740;6.604;2023-04-04T19:09:28;100454.41;;;5.69;58.87
16821;BME280;8527;49.740;6.604;2023-04-04T19:14:27;100465.97;;;5.55;60.17
16821;BME280;8527;49.740;6.604;2023-04-04T19:19:34;100467.66;;;5.44;59.96
16821;BME280;8527;49.740;6.604;2023-04-04T19:24:33;100459.75;;;5.33;60.05
16821;BME280;8527;49.740;6.604;2023-04-04T19:29:35;100464.75;;;5.25;60.63
16821;BME280;8527;49.740;6.604;2023-04-04T19:34:36;100458.63;;;5.13;60.83
16821;BME280;8527;49.740;6.604;2023-04-04T19:39:34;100462.03;;;5.02;60.82
16821;BME280;8527;49.740;6.604;2023-04-04T19:44:35;100471.09;;;4.86;61.11
16821;BME280;8527;49.740;6.604;2023-04-04T19:49:40;100471.41;;;4.82;61.82
16821;BME280;8527;49.740;6.604;2023-04-04T19:54:42;100474.88;;;4.58;63.06
16821;BME280;8527;49.740;6.604;2023-04-04T20:00:08;100470.28;;;4.48;62.55
16821;BME280;8527;49.740;6.604;2023-04-04T20:10:54;100479.34;;;4.07;65.35
16821;BME280;8527;49.740;6.604;2023-04-04T20:16:00;100481.75;;;4.10;63.08
16821;BME280;8527;49.740;6.604;2023-04-04T20:21:08;100483.09;;;4.16;63.22
16821;BME280;8527;49.740;6.604;2023-04-04T20:26:08;100483.69;;;3.95;64.49
16821;BME280;8527;49.740;6.604;2023-04-04T20:31:15;100478.97;;;3.87;63.74
16821;BME280;8527;49.740;6.604;2023-04-04T20:36:33;100481.78;;;3.84;63.62
16821;BME280;8527;49.740;6.604;2023-04-04T20:41:38;100478.66;;;3.79;63.95
16821;BME280;8527;49.740;6.604;2023-04-04T20:46:41;100489.69;;;3.71;63.91
16821;BME280;8527;49.740;6.604;2023-04-04T20:51:42;100486.97;;;3.60;65.14
16821;BME280;8527;49.740;6.604;2023-04-04T20:56:49;100494.50;;;3.51;65.60
16821;BME280;8527;49.740;6.604;2023-04-04T21:01:55;100500.47;;;3.41;65.22
16821;BME280;8527;49.740;6.604;2023-04-04T21:07:04;100511.72;;;3.30;66.60
16821;BME280;8527;49.740;6.604;2023-04-04T21:12:03;100500.03;;;3.21;67.26
16821;BME280;8527;49.740;6.604;2023-04-04T21:17:05;100506.00;;;3.10;67.16
16821;BME280;8527;49.740;6.604;2023-04-04T21:22:07;100503.28;;;2.84;69.04
16821;BME280;8527;49.740;6.604;2023-04-04T21:27:05;100500.47;;;2.87;68.39
16821;BME280;8527;49.740;6.604;2023-04-04T21:32:04;100494.19;;;2.90;67.67
16821;BME280;8527;49.740;6.604;2023-04-04T21:37:03;100497.75;;;2.89;68.87
16821;BME280;8527;49.740;6.604;2023-04-04T21:42:08;100490.91;;;2.73;69.58
16821;BME280;8527;49.740;6.604;2023-04-04T21:47:06;100505.72;;;2.60;70.42
16821;BME280;8527;49.740;6.604;2023-04-04T21:52:06;100514.91;;;2.52;71.50
16821;BME280;8527;49.740;6.604;2023-04-04T21:57:04;100515.22;;;2.33;70.62
16821;BME280;8527;49.740;6.604;2023-04-04T22:02:05;100509.28;;;2.44;69.71
16821;BME280;8527;49.740;6.604;2023-04-04T22:07:07;100514.00;;;2.39;70.67
16821;BME280;8527;49.740;6.604;2023-04-04T22:12:05;100503.44;;;2.26;71.98
16821;BME280;8527;49.740;6.604;2023-04-04T22:17:11;100499.63;;;2.17;72.40
16821;BME280;8527;49.740;6.604;2023-04-04T22:22:17;100485.88;;;2.14;73.07
16821;BME280;8527;49.740;6.604;2023-04-04T22:27:15;100491.97;;;2.14;73.93
16821;BME280;8527;49.740;6.604;2023-04-04T22:32:17;100495.31;;;2.16;73.54
16821;BME280;8527;49.740;6.604;2023-04-04T22:37:17;100495.72;;;2.10;74.78
16821;BME280;8527;49.740;6.604;2023-04-04T22:42:18;100488.31;;;2.02;74.18
16821;BME280;8527;49.740;6.604;2023-04-04T22:47:22;100478.25;;;1.96;74.23
16821;BME280;8527;49.740;6.604;2023-04-04T22:52:22;100484.88;;;1.87;74.26
16821;BME280;8527;49.740;6.604;2023-04-04T22:57:20;100474.91;;;1.79;74.28
16821;BME280;8527;49.740;6.604;2023-04-04T23:02:21;100473.66;;;1.71;75.03
16821;BME280;8527;49.740;6.604;2023-04-04T23:07:20;100462.84;;;1.77;74.38
16821;BME280;8527;49.740;6.604;2023-04-04T23:12:21;100457.53;;;1.78;75.58
16821;BME280;8527;49.740;6.604;2023-04-04T23:17:34;100470.13;;;1.72;74.49
16821;BME280;8527;49.740;6.604;2023-04-04T23:22:33;100465.66;;;1.59;73.98
16821;BME280;8527;49.740;6.604;2023-04-04T23:27:32;100463.78;;;1.61;75.78
16821;BME280;8527;49.740;6.604;2023-04-04T23:32:36;100467.06;;;1.65;76.33
16821;BME280;8527;49.740;6.604;2023-04-04T23:37:44;100455.72;;;1.50;75.77
16821;BME280;8527;49.740;6.604;2023-04-04T23:42:45;100452.47;;;1.46;75.65
16821;BME280;8527;49.740;6.604;2023-04-04T23:47:56;100446.56;;;1.43;76.65
16821;BME280;8527;49.740;6.604;2023-04-04T23:52:55;100433.41;;;1.30;75.86
16821;BME280;8527;49.740;6.604;2023-04-04T23:57:53;100433.75;;;1.23;76.33
